sensor_id;sensor_type;location;lat;lon;timestamp;P1;durP1;ratioP1;P2;durP2;ratioP2
9657;SDS011;4867;48.112;11.622;2022-12-26T00:01:00;2.37;;;1.83;;
9657;SDS011;4867;48.112;11.622;2022-12-26T00:03:32;2.77;;;2.00;;
9657;SDS011;4867;48.112;11.622;2022-12-26T00:05:59;2.47;;;2.27;;
9657;SDS011;4867;48.112;11.622;2022-12-26T00:08:26;2.17;;;1.97;;
9657;SDS011;4867;48.112;11.622;2022-12-26T00:10:53;3.80;;;2.50;;
9657;SDS011;4867;48.112;11.622;2022-12-26T00:13:21;2.33;;;2.13;;
9657;SDS011;4867;48.112;11.622;2022-12-26T00:16:07;2.27;;;2.07;;
9657;SDS011;4867;48.112;11.622;2022-12-26T00:18:45;2.93;;;2.43;;
9657;SDS011;4867;48.112;11.622;2022-12-26T00:21:13;2.17;;;1.97;;
9657;SDS011;4867;48.112;11.622;2022-12-26T00:23:42;2.10;;;1.80;;
9657;SDS011;4867;48.112;11.622;2022-12-26T00:26:11;1.93;;;1.83;;
9657;SDS011;4867;48.112;11.622;2022-12-26T00:28:43;2.20;;;2.00;;
9657;SDS011;4867;48.112;11.622;2022-12-26T00:31:11;2.30;;;1.80;;
9657;SDS011;4867;48.112;11.622;2022-12-26T00:33:41;2.47;;;1.87;;
9657;SDS011;4867;48.112;11.622;2022-12-26T00:36:10;2.23;;;1.87;;
9657;SDS011;4867;48.112;11.622;2022-12-26T00:38:39;1.87;;;1.60;;
9657;SDS011;4867;48.112;11.622;2022-12-26T00:41:08;1.80;;;1.70;;
9657;SDS011;4867;48.112;11.622;2022-12-26T00:43:36;2.10;;;1.90;;
9657;SDS011;4867;48.112;11.622;2022-12-26T00:46:03;2.00;;;1.80;;
9657;SDS011;4867;48.112;11.622;2022-12-26T00:48:31;2.13;;;1.70;;
9657;SDS011;4867;48.112;11.622;2022-12-26T00:50:58;2.50;;;2.30;;
9657;SDS011;4867;48.112;11.622;2022-12-26T00:53:26;2.40;;;1.90;;
9657;SDS011;4867;48.112;11.622;2022-12-26T00:55:54;2.30;;;1.80;;
9657;SDS011;4867;48.112;11.622;2022-12-26T00:58:22;2.07;;;1.87;;
9657;SDS011;4867;48.112;11.622;2022-12-26T01:00:50;1.70;;;1.60;;
9657;SDS011;4867;48.112;11.622;2022-12-26T01:03:18;2.10;;;1.73;;
9657;SDS011;4867;48.112;11.622;2022-12-26T01:05:46;1.90;;;1.80;;
9657;SDS011;4867;48.112;11.622;2022-12-26T01:08:16;1.80;;;1.70;;
9657;SDS011;4867;48.112;11.622;2022-12-26T01:10:50;2.10;;;1.90;;
9657;SDS011;4867;48.112;11.622;2022-12-26T01:13:17;1.87;;;1.60;;
9657;SDS011;4867;48.112;11.622;2022-12-26T01:15:48;2.17;;;1.97;;
9657;SDS011;4867;48.112;11.622;2022-12-26T01:18:17;2.00;;;1.80;;
9657;SDS011;4867;48.112;11.622;2022-12-26T01:20:46;2.00;;;1.80;;
9657;SDS011;4867;48.112;11.622;2022-12-26T01:23:14;2.10;;;1.90;;
9657;SDS011;4867;48.112;11.622;2022-12-26T01:25:42;2.80;;;1.80;;
9657;SDS011;4867;48.112;11.622;2022-12-26T01:28:29;2.00;;;1.90;;
9657;SDS011;4867;48.112;11.622;2022-12-26T01:30:59;1.90;;;1.70;;
9657;SDS011;4867;48.112;11.622;2022-12-26T01:33:30;1.70;;;1.60;;
9657;SDS011;4867;48.112;11.622;2022-12-26T01:35:58;2.07;;;1.87;;
9657;SDS011;4867;48.112;11.622;2022-12-26T01:38:26;1.90;;;1.70;;
9657;SDS011;4867;48.112;11.622;2022-12-26T01:40:53;2.90;;;1.80;;
9657;SDS011;4867;48.112;11.622;2022-12-26T01:43:46;1.90;;;1.67;;
9657;SDS011;4867;48.112;11.622;2022-12-26T01:46:28;2.60;;;2.00;;
9657;SDS011;4867;48.112;11.622;2022-12-26T01:49:06;3.33;;;1.70;;
9657;SDS011;4867;48.112;11.622;2022-12-26T01:51:54;1.50;;;1.40;;
9657;SDS011;4867;48.112;11.622;2022-12-26T01:54:28;1.47;;;1.37;;
9657;SDS011;4867;48.112;11.622;2022-12-26T01:57:11;1.57;;;1.43;;
9657;SDS011;4867;48.112;11.622;2022-12-26T01:59:43;1.70;;;1.60;;
9657;SDS011;4867;48.112;11.622;2022-12-26T02:02:11;1.63;;;1.53;;
9657;SDS011;4867;48.112;11.622;2022-12-26T02:04:42;1.40;;;1.30;;
9657;SDS011;4867;48.112;11.622;2022-12-26T02:07:31;1.40;;;1.30;;
9657;SDS011;4867;48.112;11.622;2022-12-26T02:10:00;4.03;;;1.50;;
9657;SDS011;4867;48.112;11.622;2022-12-26T02:12:29;1.40;;;1.30;;
9657;SDS011;4867;48.112;11.622;2022-12-26T02:15:06;1.47;;;1.30;;
9657;SDS011;4867;48.112;11.622;2022-12-26T02:17:39;1.63;;;1.50;;
9657;SDS011;4867;48.112;11.622;2022-12-26T02:20:20;1.57;;;1.47;;
9657;SDS011;4867;48.112;11.622;2022-12-26T02:25:57;2.57;;;1.60;;
9657;SDS011;4867;48.112;11.622;2022-12-26T02:28:48;1.97;;;1.77;;
9657;SDS011;4867;48.112;11.622;2022-12-26T02:43:26;1.70;;;1.60;;
9657;SDS011;4867;48.112;11.622;2022-12-26T02:46:25;1.50;;;1.40;;
9657;SDS011;4867;48.112;11.622;2022-12-26T02:49:15;4.50;;;1.50;;
9657;SDS011;4867;48.112;11.622;2022-12-26T02:51:54;2.20;;;1.60;;
9657;SDS011;4867;48.112;11.622;2022-12-26T02:54:59;1.67;;;1.57;;
9657;SDS011;4867;48.112;11.622;2022-12-26T02:57:58;1.53;;;1.43;;
9657;SDS011;4867;48.112;11.622;2022-12-26T03:00:59;3.70;;;1.53;;
9657;SDS011;4867;48.112;11.622;2022-12-26T03:03:48;1.70;;;1.60;;
9657;SDS011;4867;48.112;11.622;2022-12-26T03:06:38;1.77;;;1.50;;
9657;SDS011;4867;48.112;11.622;2022-12-26T03:09:37;1.70;;;1.40;;
9657;SDS011;4867;48.112;11.622;2022-12-26T03:12:49;1.40;;;1.30;;
9657;SDS011;4867;48.112;11.622;2022-12-26T03:15:40;1.57;;;1.40;;
9657;SDS011;4867;48.112;11.622;2022-12-26T03:18:32;1.50;;;1.40;;
9657;SDS011;4867;48.112;11.622;2022-12-26T03:21:23;1.90;;;1.80;;
9657;SDS011;4867;48.112;11.622;2022-12-26T03:23:54;1.80;;;1.60;;
9657;SDS011;4867;48.112;11.622;2022-12-26T03:26:31;1.47;;;1.37;;
9657;SDS011;4867;48.112;11.622;2022-12-26T03:29:12;2.60;;;1.37;;
9657;SDS011;4867;48.112;11.622;2022-12-26T03:32:01;1.70;;;1.50;;
9657;SDS011;4867;48.112;11.622;2022-12-26T03:34:32;1.87;;;1.60;;
9657;SDS011;4867;48.112;11.622;2022-12-26T03:40:19;2.00;;;1.80;;
9657;SDS011;4867;48.112;11.622;2022-12-26T03:54:58;1.87;;;1.60;;
9657;SDS011;4867;48.112;11.622;2022-12-26T03:58:30;2.20;;;2.00;;
9657;SDS011;4867;48.112;11.622;2022-12-26T04:01:22;1.73;;;1.63;;
9657;SDS011;4867;48.112;11.622;2022-12-26T04:04:14;1.57;;;1.47;;
9657;SDS011;4867;48.112;11.622;2022-12-26T04:07:23;1.83;;;1.43;;
9657;SDS011;4867;48.112;11.622;2022-12-26T04:10:34;1.73;;;1.50;;
9657;SDS011;4867;48.112;11.622;2022-12-26T04:13:29;2.30;;;1.50;;
9657;SDS011;4867;48.112;11.622;2022-12-26T04:16:23;1.87;;;1.50;;
9657;SDS011;4867;48.112;11.622;2022-12-26T04:22:04;1.90;;;1.40;;
9657;SDS011;4867;48.112;11.622;2022-12-26T04:25:07;1.70;;;1.60;;
9657;SDS011;4867;48.112;11.622;2022-12-26T04:28:14;2.13;;;1.70;;
9657;SDS011;4867;48.112;11.622;2022-12-26T04:31:03;1.57;;;1.40;;
9657;SDS011;4867;48.112;11.622;2022-12-26T04:33:55;2.17;;;1.60;;
9657;SDS011;4867;48.112;11.622;2022-12-26T04:36:48;1.67;;;1.47;;
9657;SDS011;4867;48.112;11.622;2022-12-26T04:39:44;1.73;;;1.60;;
9657;SDS011;4867;48.112;11.622;2022-12-26T04:42:33;1.97;;;1.57;;
9657;SDS011;4867;48.112;11.622;2022-12-26T04:45:20;1.93;;;1.80;;
9657;SDS011;4867;48.112;11.622;2022-12-26T04:47:49;1.63;;;1.50;;
9657;SDS011;4867;48.112;11.622;2022-12-26T04:50:35;1.50;;;1.40;;
9657;SDS011;4867;48.112;11.622;2022-12-26T04:53:02;2.47;;;1.53;;
9657;SDS011;4867;48.112;11.622;2022-12-26T04:55:30;1.97;;;1.77;;
9657;SDS011;4867;48.112;11.622;2022-12-26T04:57:58;1.70;;;1.60;;
9657;SDS011;4867;48.112;11.622;2022-12-26T05:00:26;2.13;;;1.60;;
9657;SDS011;4867;48.112;11.622;2022-12-26T05:02:54;2.97;;;1.70;;
9657;SDS011;4867;48.112;11.622;2022-12-26T05:05:46;1.87;;;1.50;;
9657;SDS011;4867;48.112;11.622;2022-12-26T05:08:41;2.27;;;1.80;;
9657;SDS011;4867;48.112;11.622;2022-12-26T05:11:29;1.70;;;1.60;;
9657;SDS011;4867;48.112;11.622;2022-12-26T05:14:00;2.70;;;2.27;;
9657;SDS011;4867;48.112;11.622;2022-12-26T05:16:27;2.70;;;2.50;;
9657;SDS011;4867;48.112;11.622;2022-12-26T05:19:13;2.50;;;2.27;;
9657;SDS011;4867;48.112;11.622;2022-12-26T05:22:02;3.73;;;2.53;;
9657;SDS011;4867;48.112;11.622;2022-12-26T05:24:49;2.60;;;2.40;;
9657;SDS011;4867;48.112;11.622;2022-12-26T05:27:36;2.40;;;2.03;;
9657;SDS011;4867;48.112;11.622;2022-12-26T05:30:23;2.27;;;2.07;;
9657;SDS011;4867;48.112;11.622;2022-12-26T05:32:51;3.80;;;2.27;;
9657;SDS011;4867;48.112;11.622;2022-12-26T05:35:37;3.67;;;2.40;;
9657;SDS011;4867;48.112;11.622;2022-12-26T05:38:05;2.40;;;2.20;;
9657;SDS011;4867;48.112;11.622;2022-12-26T05:40:35;2.17;;;1.90;;
9657;SDS011;4867;48.112;11.622;2022-12-26T05:43:02;2.30;;;2.10;;
9657;SDS011;4867;48.112;11.622;2022-12-26T05:45:30;2.33;;;2.13;;
9657;SDS011;4867;48.112;11.622;2022-12-26T05:47:58;2.20;;;2.00;;
9657;SDS011;4867;48.112;11.622;2022-12-26T05:50:27;2.27;;;1.90;;
9657;SDS011;4867;48.112;11.622;2022-12-26T05:52:55;1.97;;;1.67;;
9657;SDS011;4867;48.112;11.622;2022-12-26T05:55:23;1.80;;;1.60;;
9657;SDS011;4867;48.112;11.622;2022-12-26T05:57:51;1.90;;;1.80;;
9657;SDS011;4867;48.112;11.622;2022-12-26T06:00:18;1.80;;;1.70;;
9657;SDS011;4867;48.112;11.622;2022-12-26T06:02:46;1.40;;;1.30;;
9657;SDS011;4867;48.112;11.622;2022-12-26T06:05:13;1.63;;;1.53;;
9657;SDS011;4867;48.112;11.622;2022-12-26T06:07:40;1.60;;;1.50;;
9657;SDS011;4867;48.112;11.622;2022-12-26T06:10:08;2.13;;;1.80;;
9657;SDS011;4867;48.112;11.622;2022-12-26T06:12:36;2.37;;;2.00;;
9657;SDS011;4867;48.112;11.622;2022-12-26T06:15:04;2.17;;;1.90;;
9657;SDS011;4867;48.112;11.622;2022-12-26T06:17:31;2.77;;;1.77;;
9657;SDS011;4867;48.112;11.622;2022-12-26T06:19:58;2.63;;;1.50;;
9657;SDS011;4867;48.112;11.622;2022-12-26T06:22:27;1.77;;;1.67;;
9657;SDS011;4867;48.112;11.622;2022-12-26T06:24:55;1.90;;;1.80;;
9657;SDS011;4867;48.112;11.622;2022-12-26T06:27:22;1.80;;;1.70;;
9657;SDS011;4867;48.112;11.622;2022-12-26T06:29:49;1.80;;;1.70;;
9657;SDS011;4867;48.112;11.622;2022-12-26T06:32:17;1.67;;;1.57;;
9657;SDS011;4867;48.112;11.622;2022-12-26T06:34:44;2.83;;;1.80;;
9657;SDS011;4867;48.112;11.622;2022-12-26T06:37:12;1.70;;;1.60;;
9657;SDS011;4867;48.112;11.622;2022-12-26T06:39:39;1.60;;;1.43;;
9657;SDS011;4867;48.112;11.622;2022-12-26T06:42:07;1.70;;;1.60;;
9657;SDS011;4867;48.112;11.622;2022-12-26T06:44:35;1.60;;;1.50;;
9657;SDS011;4867;48.112;11.622;2022-12-26T06:47:02;1.83;;;1.73;;
9657;SDS011;4867;48.112;11.622;2022-12-26T06:49:29;1.93;;;1.67;;
9657;SDS011;4867;48.112;11.622;2022-12-26T06:51:59;1.70;;;1.60;;
9657;SDS011;4867;48.112;11.622;2022-12-26T06:54:26;1.57;;;1.40;;
9657;SDS011;4867;48.112;11.622;2022-12-26T06:56:53;2.27;;;1.70;;
9657;SDS011;4867;48.112;11.622;2022-12-26T06:59:20;3.23;;;1.47;;
9657;SDS011;4867;48.112;11.622;2022-12-26T07:01:47;2.13;;;1.50;;
9657;SDS011;4867;48.112;11.622;2022-12-26T07:04:15;2.17;;;1.57;;
9657;SDS011;4867;48.112;11.622;2022-12-26T07:06:42;1.50;;;1.40;;
9657;SDS011;4867;48.112;11.622;2022-12-26T07:09:10;1.63;;;1.53;;
9657;SDS011;4867;48.112;11.622;2022-12-26T07:11:42;1.80;;;1.50;;
9657;SDS011;4867;48.112;11.622;2022-12-26T07:14:11;1.70;;;1.60;;
9657;SDS011;4867;48.112;11.622;2022-12-26T07:16:39;1.90;;;1.80;;
9657;SDS011;4867;48.112;11.622;2022-12-26T07:19:08;2.27;;;1.70;;
9657;SDS011;4867;48.112;11.622;2022-12-26T07:21:37;1.70;;;1.60;;
9657;SDS011;4867;48.112;11.622;2022-12-26T07:24:12;1.83;;;1.73;;
9657;SDS011;4867;48.112;11.622;2022-12-26T07:26:44;1.70;;;1.60;;
9657;SDS011;4867;48.112;11.622;2022-12-26T07:29:12;2.73;;;1.83;;
9657;SDS011;4867;48.112;11.622;2022-12-26T07:31:40;1.83;;;1.73;;
9657;SDS011;4867;48.112;11.622;2022-12-26T07:34:08;1.60;;;1.50;;
9657;SDS011;4867;48.112;11.622;2022-12-26T07:36:35;1.70;;;1.60;;
9657;SDS011;4867;48.112;11.622;2022-12-26T07:39:02;1.67;;;1.53;;
9657;SDS011;4867;48.112;11.622;2022-12-26T07:41:29;1.60;;;1.50;;
9657;SDS011;4867;48.112;11.622;2022-12-26T07:44:15;2.40;;;1.60;;
9657;SDS011;4867;48.112;11.622;2022-12-26T07:46:43;1.90;;;1.80;;
9657;SDS011;4867;48.112;11.622;2022-12-26T07:49:12;1.70;;;1.60;;
9657;SDS011;4867;48.112;11.622;2022-12-26T07:51:40;1.60;;;1.50;;
9657;SDS011;4867;48.112;11.622;2022-12-26T07:54:08;1.47;;;1.37;;
9657;SDS011;4867;48.112;11.622;2022-12-26T07:56:38;1.83;;;1.70;;
9657;SDS011;4867;48.112;11.622;2022-12-26T07:59:06;1.70;;;1.60;;
9657;SDS011;4867;48.112;11.622;2022-12-26T08:01:37;2.00;;;1.50;;
9657;SDS011;4867;48.112;11.622;2022-12-26T08:04:04;1.70;;;1.60;;
9657;SDS011;4867;48.112;11.622;2022-12-26T08:06:31;1.70;;;1.60;;
9657;SDS011;4867;48.112;11.622;2022-12-26T08:08:59;1.87;;;1.70;;
9657;SDS011;4867;48.112;11.622;2022-12-26T08:11:26;2.90;;;1.60;;
9657;SDS011;4867;48.112;11.622;2022-12-26T08:13:57;1.93;;;1.60;;
9657;SDS011;4867;48.112;11.622;2022-12-26T08:16:24;1.73;;;1.63;;
9657;SDS011;4867;48.112;11.622;2022-12-26T08:18:51;1.73;;;1.63;;
9657;SDS011;4867;48.112;11.622;2022-12-26T08:21:18;3.20;;;1.70;;
9657;SDS011;4867;48.112;11.622;2022-12-26T08:23:46;2.13;;;1.70;;
9657;SDS011;4867;48.112;11.622;2022-12-26T08:26:14;1.90;;;1.80;;
9657;SDS011;4867;48.112;11.622;2022-12-26T08:28:48;1.80;;;1.70;;
9657;SDS011;4867;48.112;11.622;2022-12-26T08:31:17;1.83;;;1.70;;
9657;SDS011;4867;48.112;11.622;2022-12-26T08:33:45;2.17;;;1.70;;
9657;SDS011;4867;48.112;11.622;2022-12-26T08:36:13;3.00;;;2.00;;
9657;SDS011;4867;48.112;11.622;2022-12-26T08:38:44;2.33;;;1.83;;
9657;SDS011;4867;48.112;11.622;2022-12-26T08:41:16;2.07;;;1.83;;
9657;SDS011;4867;48.112;11.622;2022-12-26T08:43:46;1.90;;;1.80;;
9657;SDS011;4867;48.112;11.622;2022-12-26T08:46:35;2.10;;;1.90;;
9657;SDS011;4867;48.112;11.622;2022-12-26T08:49:02;2.00;;;1.80;;
9657;SDS011;4867;48.112;11.622;2022-12-26T08:51:30;2.87;;;1.87;;
9657;SDS011;4867;48.112;11.622;2022-12-26T08:53:57;1.97;;;1.63;;
9657;SDS011;4867;48.112;11.622;2022-12-26T08:56:24;2.00;;;1.70;;
9657;SDS011;4867;48.112;11.622;2022-12-26T08:58:53;2.30;;;2.10;;
9657;SDS011;4867;48.112;11.622;2022-12-26T09:01:21;2.00;;;1.80;;
9657;SDS011;4867;48.112;11.622;2022-12-26T09:03:51;2.93;;;2.30;;
9657;SDS011;4867;48.112;11.622;2022-12-26T09:06:20;2.33;;;1.80;;
9657;SDS011;4867;48.112;11.622;2022-12-26T09:08:47;3.67;;;1.80;;
9657;SDS011;4867;48.112;11.622;2022-12-26T09:11:16;2.37;;;1.80;;
9657;SDS011;4867;48.112;11.622;2022-12-26T09:13:46;2.10;;;1.90;;
9657;SDS011;4867;48.112;11.622;2022-12-26T09:16:15;2.80;;;1.90;;
9657;SDS011;4867;48.112;11.622;2022-12-26T09:18:44;2.70;;;1.93;;
9657;SDS011;4867;48.112;11.622;2022-12-26T09:21:13;2.60;;;2.00;;
9657;SDS011;4867;48.112;11.622;2022-12-26T09:23:41;2.87;;;1.63;;
9657;SDS011;4867;48.112;11.622;2022-12-26T09:26:10;1.80;;;1.70;;
9657;SDS011;4867;48.112;11.622;2022-12-26T09:28:39;1.87;;;1.67;;
9657;SDS011;4867;48.112;11.622;2022-12-26T09:31:09;2.53;;;1.80;;
9657;SDS011;4867;48.112;11.622;2022-12-26T09:33:38;2.03;;;1.83;;
9657;SDS011;4867;48.112;11.622;2022-12-26T09:36:07;1.90;;;1.80;;
9657;SDS011;4867;48.112;11.622;2022-12-26T09:38:43;1.83;;;1.60;;
9657;SDS011;4867;48.112;11.622;2022-12-26T09:41:26;1.87;;;1.73;;
9657;SDS011;4867;48.112;11.622;2022-12-26T09:44:18;2.17;;;1.77;;
9657;SDS011;4867;48.112;11.622;2022-12-26T09:49:54;3.27;;;1.83;;
9657;SDS011;4867;48.112;11.622;2022-12-26T10:00:57;1.70;;;1.60;;
9657;SDS011;4867;48.112;11.622;2022-12-26T10:03:29;1.70;;;1.60;;
9657;SDS011;4867;48.112;11.622;2022-12-26T10:13:55;1.77;;;1.67;;
9657;SDS011;4867;48.112;11.622;2022-12-26T10:16:44;2.00;;;1.80;;
9657;SDS011;4867;48.112;11.622;2022-12-26T10:19:42;2.43;;;1.93;;
9657;SDS011;4867;48.112;11.622;2022-12-26T10:22:25;1.60;;;1.50;;
9657;SDS011;4867;48.112;11.622;2022-12-26T10:24:57;3.50;;;2.10;;
9657;SDS011;4867;48.112;11.622;2022-12-26T10:27:27;1.90;;;1.80;;
9657;SDS011;4867;48.112;11.622;2022-12-26T10:30:03;3.20;;;1.70;;
9657;SDS011;4867;48.112;11.622;2022-12-26T10:32:35;3.20;;;2.90;;
9657;SDS011;4867;48.112;11.622;2022-12-26T10:35:50;2.07;;;1.70;;
9657;SDS011;4867;48.112;11.622;2022-12-26T10:38:01;3.40;;;2.63;;
9657;SDS011;4867;48.112;11.622;2022-12-26T10:40:53;1.50;;;1.40;;
9657;SDS011;4867;48.112;11.622;2022-12-26T10:43:26;3.00;;;1.70;;
9657;SDS011;4867;48.112;11.622;2022-12-26T10:45:59;2.83;;;1.70;;
9657;SDS011;4867;48.112;11.622;2022-12-26T10:48:29;2.03;;;1.70;;
9657;SDS011;4867;48.112;11.622;2022-12-26T10:50:56;2.87;;;1.80;;
9657;SDS011;4867;48.112;11.622;2022-12-26T10:53:23;1.80;;;1.70;;
9657;SDS011;4867;48.112;11.622;2022-12-26T10:55:51;2.00;;;1.73;;
9657;SDS011;4867;48.112;11.622;2022-12-26T10:58:28;1.70;;;1.60;;
9657;SDS011;4867;48.112;11.622;2022-12-26T11:01:27;2.00;;;1.80;;
9657;SDS011;4867;48.112;11.622;2022-12-26T11:03:56;2.27;;;1.67;;
9657;SDS011;4867;48.112;11.622;2022-12-26T11:06:32;3.43;;;1.80;;
9657;SDS011;4867;48.112;11.622;2022-12-26T11:09:03;1.70;;;1.50;;
9657;SDS011;4867;48.112;11.622;2022-12-26T11:11:33;1.70;;;1.60;;
9657;SDS011;4867;48.112;11.622;2022-12-26T11:14:25;3.10;;;1.50;;
9657;SDS011;4867;48.112;11.622;2022-12-26T11:17:06;3.03;;;1.73;;
9657;SDS011;4867;48.112;11.622;2022-12-26T11:19:38;1.83;;;1.73;;
9657;SDS011;4867;48.112;11.622;2022-12-26T11:22:20;2.10;;;1.83;;
9657;SDS011;4867;48.112;11.622;2022-12-26T11:25:23;1.80;;;1.70;;
9657;SDS011;4867;48.112;11.622;2022-12-26T11:27:51;1.90;;;1.53;;
9657;SDS011;4867;48.112;11.622;2022-12-26T11:30:28;2.90;;;1.67;;
9657;SDS011;4867;48.112;11.622;2022-12-26T11:33:05;2.20;;;1.80;;
9657;SDS011;4867;48.112;11.622;2022-12-26T11:35:59;2.60;;;1.77;;
9657;SDS011;4867;48.112;11.622;2022-12-26T11:38:32;2.10;;;1.77;;
9657;SDS011;4867;48.112;11.622;2022-12-26T11:41:33;1.80;;;1.70;;
9657;SDS011;4867;48.112;11.622;2022-12-26T11:44:22;3.60;;;2.20;;
9657;SDS011;4867;48.112;11.622;2022-12-26T11:55:00;3.03;;;2.63;;
9657;SDS011;4867;48.112;11.622;2022-12-26T11:57:29;3.40;;;2.37;;
9657;SDS011;4867;48.112;11.622;2022-12-26T12:00:14;2.83;;;2.60;;
9657;SDS011;4867;48.112;11.622;2022-12-26T12:02:43;3.83;;;2.30;;
9657;SDS011;4867;48.112;11.622;2022-12-26T12:05:12;4.00;;;2.30;;
9657;SDS011;4867;48.112;11.622;2022-12-26T12:11:21;3.43;;;1.93;;
9657;SDS011;4867;48.112;11.622;2022-12-26T12:13:59;3.27;;;2.07;;
9657;SDS011;4867;48.112;11.622;2022-12-26T12:16:49;2.77;;;1.73;;
9657;SDS011;4867;48.112;11.622;2022-12-26T12:19:26;3.13;;;2.40;;
9657;SDS011;4867;48.112;11.622;2022-12-26T12:44:21;3.27;;;2.60;;
9657;SDS011;4867;48.112;11.622;2022-12-26T12:55:41;4.60;;;3.10;;
9657;SDS011;4867;48.112;11.622;2022-12-26T12:58:52;4.60;;;2.93;;
9657;SDS011;4867;48.112;11.622;2022-12-26T13:01:34;3.63;;;2.93;;
9657;SDS011;4867;48.112;11.622;2022-12-26T13:04:16;3.97;;;3.27;;
9657;SDS011;4867;48.112;11.622;2022-12-26T13:07:09;6.07;;;5.13;;
9657;SDS011;4867;48.112;11.622;2022-12-26T13:09:41;5.87;;;4.00;;
9657;SDS011;4867;48.112;11.622;2022-12-26T13:12:15;4.03;;;3.67;;
9657;SDS011;4867;48.112;11.622;2022-12-26T13:14:50;4.73;;;3.80;;
9657;SDS011;4867;48.112;11.622;2022-12-26T13:17:26;6.77;;;4.97;;
9657;SDS011;4867;48.112;11.622;2022-12-26T13:22:33;5.57;;;3.70;;
9657;SDS011;4867;48.112;11.622;2022-12-26T13:25:23;4.30;;;3.70;;
9657;SDS011;4867;48.112;11.622;2022-12-26T13:27:53;6.37;;;4.33;;
9657;SDS011;4867;48.112;11.622;2022-12-26T13:30:35;6.77;;;4.27;;
9657;SDS011;4867;48.112;11.622;2022-12-26T13:33:03;6.33;;;5.07;;
9657;SDS011;4867;48.112;11.622;2022-12-26T13:35:51;5.17;;;4.30;;
9657;SDS011;4867;48.112;11.622;2022-12-26T13:38:24;5.83;;;4.13;;
9657;SDS011;4867;48.112;11.622;2022-12-26T13:41:19;5.33;;;4.13;;
9657;SDS011;4867;48.112;11.622;2022-12-26T13:44:06;5.70;;;4.37;;
9657;SDS011;4867;48.112;11.622;2022-12-26T14:00:39;4.90;;;4.20;;
9657;SDS011;4867;48.112;11.622;2022-12-26T14:03:17;4.63;;;3.90;;
9657;SDS011;4867;48.112;11.622;2022-12-26T14:06:09;5.53;;;3.80;;
9657;SDS011;4867;48.112;11.622;2022-12-26T14:09:04;14.63;;;11.70;;
9657;SDS011;4867;48.112;11.622;2022-12-26T14:11:41;4.83;;;3.40;;
9657;SDS011;4867;48.112;11.622;2022-12-26T14:14:40;4.43;;;3.33;;
9657;SDS011;4867;48.112;11.622;2022-12-26T14:17:42;15.00;;;10.57;;
9657;SDS011;4867;48.112;11.622;2022-12-26T14:20:32;5.60;;;4.03;;
9657;SDS011;4867;48.112;11.622;2022-12-26T14:26:04;5.37;;;4.03;;
9657;SDS011;4867;48.112;11.622;2022-12-26T14:31:37;7.47;;;4.67;;
9657;SDS011;4867;48.112;11.622;2022-12-26T14:34:16;4.30;;;3.90;;
9657;SDS011;4867;48.112;11.622;2022-12-26T14:42:30;6.60;;;3.87;;
9657;SDS011;4867;48.112;11.622;2022-12-26T14:47:55;4.83;;;3.50;;
9657;SDS011;4867;48.112;11.622;2022-12-26T14:53:16;4.03;;;3.53;;
9657;SDS011;4867;48.112;11.622;2022-12-26T14:58:40;11.37;;;8.43;;
9657;SDS011;4867;48.112;11.622;2022-12-26T15:11:41;7.00;;;4.50;;
9657;SDS011;4867;48.112;11.622;2022-12-26T15:17:33;5.23;;;4.07;;
9657;SDS011;4867;48.112;11.622;2022-12-26T15:23:44;14.70;;;13.20;;
9657;SDS011;4867;48.112;11.622;2022-12-26T15:29:00;4.73;;;3.90;;
9657;SDS011;4867;48.112;11.622;2022-12-26T15:34:41;7.00;;;5.80;;
9657;SDS011;4867;48.112;11.622;2022-12-26T15:40:13;6.77;;;5.93;;
9657;SDS011;4867;48.112;11.622;2022-12-26T15:43:17;6.93;;;5.00;;
9657;SDS011;4867;48.112;11.622;2022-12-26T16:00:39;3.57;;;2.10;;
9657;SDS011;4867;48.112;11.622;2022-12-26T16:03:23;3.53;;;3.07;;
9657;SDS011;4867;48.112;11.622;2022-12-26T16:06:41;4.23;;;3.40;;
9657;SDS011;4867;48.112;11.622;2022-12-26T16:08:54;2.33;;;2.10;;
9657;SDS011;4867;48.112;11.622;2022-12-26T16:11:30;10.97;;;9.07;;
9657;SDS011;4867;48.112;11.622;2022-12-26T16:19:41;25.83;;;16.37;;
9657;SDS011;4867;48.112;11.622;2022-12-26T16:22:42;9.83;;;6.57;;
9657;SDS011;4867;48.112;11.622;2022-12-26T16:25:22;38.30;;;24.27;;
9657;SDS011;4867;48.112;11.622;2022-12-26T16:27:52;9.13;;;6.43;;
9657;SDS011;4867;48.112;11.622;2022-12-26T16:30:23;33.17;;;21.03;;
9657;SDS011;4867;48.112;11.622;2022-12-26T16:32:52;7.53;;;5.33;;
9657;SDS011;4867;48.112;11.622;2022-12-26T16:35:27;15.17;;;10.77;;
9657;SDS011;4867;48.112;11.622;2022-12-26T16:37:59;11.53;;;7.70;;
9657;SDS011;4867;48.112;11.622;2022-12-26T16:40:30;23.97;;;18.57;;
9657;SDS011;4867;48.112;11.622;2022-12-26T16:45:57;17.97;;;15.27;;
9657;SDS011;4867;48.112;11.622;2022-12-26T16:48:29;5.03;;;3.53;;
9657;SDS011;4867;48.112;11.622;2022-12-26T16:51:00;12.20;;;10.43;;
9657;SDS011;4867;48.112;11.622;2022-12-26T16:58:48;22.50;;;17.83;;
9657;SDS011;4867;48.112;11.622;2022-12-26T17:01:19;7.87;;;5.47;;
9657;SDS011;4867;48.112;11.622;2022-12-26T17:03:48;10.33;;;7.17;;
9657;SDS011;4867;48.112;11.622;2022-12-26T17:06:25;7.03;;;5.33;;
9657;SDS011;4867;48.112;11.622;2022-12-26T17:08:53;13.60;;;10.53;;
9657;SDS011;4867;48.112;11.622;2022-12-26T17:11:26;20.60;;;15.80;;
9657;SDS011;4867;48.112;11.622;2022-12-26T17:13:59;7.97;;;6.80;;
9657;SDS011;4867;48.112;11.622;2022-12-26T17:16:29;5.60;;;4.63;;
9657;SDS011;4867;48.112;11.622;2022-12-26T17:19:08;5.67;;;3.50;;
9657;SDS011;4867;48.112;11.622;2022-12-26T17:24:40;5.73;;;5.17;;
9657;SDS011;4867;48.112;11.622;2022-12-26T17:29:47;24.03;;;18.37;;
9657;SDS011;4867;48.112;11.622;2022-12-26T17:32:15;14.27;;;11.83;;
9657;SDS011;4867;48.112;11.622;2022-12-26T17:34:46;11.60;;;8.70;;
9657;SDS011;4867;48.112;11.622;2022-12-26T17:37:19;7.93;;;5.83;;
9657;SDS011;4867;48.112;11.622;2022-12-26T17:39:49;18.23;;;13.07;;
9657;SDS011;4867;48.112;11.622;2022-12-26T17:42:20;9.10;;;7.07;;
9657;SDS011;4867;48.112;11.622;2022-12-26T17:44:48;8.97;;;7.43;;
9657;SDS011;4867;48.112;11.622;2022-12-26T17:47:22;21.20;;;16.33;;
9657;SDS011;4867;48.112;11.622;2022-12-26T17:49:52;9.13;;;6.60;;
9657;SDS011;4867;48.112;11.622;2022-12-26T17:52:22;3.80;;;3.03;;
9657;SDS011;4867;48.112;11.622;2022-12-26T17:54:51;15.17;;;11.30;;
9657;SDS011;4867;48.112;11.622;2022-12-26T17:57:20;17.10;;;11.30;;
9657;SDS011;4867;48.112;11.622;2022-12-26T17:59:49;67.33;;;54.70;;
9657;SDS011;4867;48.112;11.622;2022-12-26T18:02:18;46.80;;;42.33;;
9657;SDS011;4867;48.112;11.622;2022-12-26T18:04:46;12.23;;;11.40;;
9657;SDS011;4867;48.112;11.622;2022-12-26T18:07:15;6.53;;;6.03;;
9657;SDS011;4867;48.112;11.622;2022-12-26T18:09:44;4.00;;;3.70;;
9657;SDS011;4867;48.112;11.622;2022-12-26T18:12:13;2.10;;;1.90;;
9657;SDS011;4867;48.112;11.622;2022-12-26T18:14:42;2.30;;;2.20;;
9657;SDS011;4867;48.112;11.622;2022-12-26T18:17:13;4.33;;;4.03;;
9657;SDS011;4867;48.112;11.622;2022-12-26T18:19:44;2.97;;;2.77;;
9657;SDS011;4867;48.112;11.622;2022-12-26T18:22:13;5.83;;;5.33;;
9657;SDS011;4867;48.112;11.622;2022-12-26T18:24:41;2.93;;;1.97;;
9657;SDS011;4867;48.112;11.622;2022-12-26T18:27:19;7.03;;;6.47;;
9657;SDS011;4867;48.112;11.622;2022-12-26T18:29:50;5.07;;;4.60;;
9657;SDS011;4867;48.112;11.622;2022-12-26T18:34:51;8.07;;;7.47;;
9657;SDS011;4867;48.112;11.622;2022-12-26T18:37:20;8.97;;;8.17;;
9657;SDS011;4867;48.112;11.622;2022-12-26T18:39:48;4.37;;;4.07;;
9657;SDS011;4867;48.112;11.622;2022-12-26T18:42:17;5.43;;;5.03;;
9657;SDS011;4867;48.112;11.622;2022-12-26T18:44:45;9.13;;;8.37;;
9657;SDS011;4867;48.112;11.622;2022-12-26T18:47:13;2.03;;;1.90;;
9657;SDS011;4867;48.112;11.622;2022-12-26T18:49:42;3.40;;;3.10;;
9657;SDS011;4867;48.112;11.622;2022-12-26T18:52:10;5.73;;;5.23;;
9657;SDS011;4867;48.112;11.622;2022-12-26T18:54:43;7.93;;;7.23;;
9657;SDS011;4867;48.112;11.622;2022-12-26T18:57:14;2.30;;;2.10;;
9657;SDS011;4867;48.112;11.622;2022-12-26T18:59:43;5.07;;;4.57;;
9657;SDS011;4867;48.112;11.622;2022-12-26T19:02:14;7.50;;;6.40;;
9657;SDS011;4867;48.112;11.622;2022-12-26T19:04:45;12.13;;;9.87;;